• location
  • image
Airport

AP V2 EN

 

 

Click here to view short presentation ->

Today

Monday, 28 July 2014

Weather Forecast

Siauliai 24 °C
   

Aviation Weather Forecast

[source: ADDS]
METAR
EYSA 281750Z 13008KT CAVOK 24/18 Q1014 =
TAF
TAF EYSA 281700Z 2818/2903 VRB04KT 9000 BKN040 TEMPO 2818/2821 VRB28KT 3000 TSRA BKN025CB TEMPO 2821/2824 1500 MIFG BR SCT005 TEMPO 2900/2903 0600 FG VV002 =
SR / SS: 02:30 / 18:38 UTC (EYSA 2014-07-28)

Who's Online

We have 5 guests online

tic logo en